CheckWX is a tool to help pilots better visualize weather data.  It is not intended as a substitute for an official pre-flight weather briefing.

21:03:18 UTC

KRTS METAR
Reno / Stead Airport
Reno, Nevada, USA
Current

28 mins ago

KRTS 232035Z AUTO 35009KT 10SM FEW040 SCT046 OVC060 10/04 A2991 RMK AO2
Observed
May-23 @ 20:35 UTC
Wind
  • 350° at 9 KTS
Visibility
10 SM
Flight Rules
VFR
Cloud Levels
  • Few at 4,000' AGL
  • Scattered at 4,600' AGL
  • Overcast at 6,000' AGL
Temperature
10°C / 50°F
Dewpoint
C / 39°F
Humidity
67%
Altimeter
29.91" Hg
Pressure
1012.92 hPa
Previous

2 hours ago

KRTS 231915Z AUTO 07008KT 10SM BKN025 BKN035 OVC042 09/04 A2990 RMK AO2
Observed
May-23 @ 19:15 UTC
Wind
  • 070° at 8 KTS
Visibility
10 SM
Flight Rules
MVFR
Cloud Levels
  • Broken at 2,500' AGL
  • Broken at 3,500' AGL
  • Overcast at 4,200' AGL
Temperature
C / 48°F
Dewpoint
C / 39°F
Humidity
71%
Altimeter
29.9" Hg
Pressure
1012.52 hPa
Previous

2 hours ago

KRTS 231855Z AUTO 02008KT 10SM SCT026 BKN041 OVC055 09/04 A2989 RMK AO2
Observed
May-23 @ 18:55 UTC
Wind
  • 020° at 8 KTS
Visibility
10 SM
Flight Rules
VFR
Cloud Levels
  • Scattered at 2,600' AGL
  • Broken at 4,100' AGL
  • Overcast at 5,500' AGL
Temperature
C / 48°F
Dewpoint
C / 39°F
Humidity
71%
Altimeter
29.89" Hg
Pressure
1012.22 hPa